X  Close Metar Aviation Weather Data     NZWN Wellington International Airport
Temperature
10°C Temperature
7°C Dewpoint
82% Humidity



Wind
8 KM/H
5 MPH
2 M/S
4 KTS



20°
NNE
Current Conditions

Mostly Cloudy Mostly Cloudy
Pressure 1005.08 (hPa) - 29.68 (inHg)
Visibility 6 (mile) - 9.7 (km)
Airport
Airport-code NZWN

Location: Wellington International Airport
Distance: 14 (km)

Metar:
NZWN 131100Z AUTO 02004KT 360V060 9999 BKN065/// 10/07 Q1005

Time: 13-06-2024 23:00 NZST